sensor_id;sensor_type;location;lat;lon;timestamp;temperature;humidity
54202;DHT22;40108;53.152;5.844;2022-12-05T00:01:37;4.70;92.40
54202;DHT22;40108;53.152;5.844;2022-12-05T00:04:06;4.70;92.50
54202;DHT22;40108;53.152;5.844;2022-12-05T00:06:34;4.70;92.40
54202;DHT22;40108;53.152;5.844;2022-12-05T00:09:00;4.70;92.40
54202;DHT22;40108;53.152;5.844;2022-12-05T00:11:29;4.70;92.40
54202;DHT22;40108;53.152;5.844;2022-12-05T00:13:57;4.70;92.40
54202;DHT22;40108;53.152;5.844;2022-12-05T00:16:24;4.70;92.50
54202;DHT22;40108;53.152;5.844;2022-12-05T00:18:51;4.70;92.50
54202;DHT22;40108;53.152;5.844;2022-12-05T00:21:28;4.70;92.50
54202;DHT22;40108;53.152;5.844;2022-12-05T00:23:55;4.70;92.50
54202;DHT22;40108;53.152;5.844;2022-12-05T00:26:21;4.70;92.60
54202;DHT22;40108;53.152;5.844;2022-12-05T00:28:48;4.70;92.60
54202;DHT22;40108;53.152;5.844;2022-12-05T00:31:16;4.70;92.60
54202;DHT22;40108;53.152;5.844;2022-12-05T00:33:43;4.70;92.60
54202;DHT22;40108;53.152;5.844;2022-12-05T00:36:11;4.70;92.60
54202;DHT22;40108;53.152;5.844;2022-12-05T00:38:38;4.70;92.60
54202;DHT22;40108;53.152;5.844;2022-12-05T00:41:05;4.70;92.70
54202;DHT22;40108;53.152;5.844;2022-12-05T00:43:32;4.70;92.60
54202;DHT22;40108;53.152;5.844;2022-12-05T00:46:07;4.70;92.60
54202;DHT22;40108;53.152;5.844;2022-12-05T00:48:34;4.70;92.50
54202;DHT22;40108;53.152;5.844;2022-12-05T00:51:06;4.70;92.40
54202;DHT22;40108;53.152;5.844;2022-12-05T00:53:33;4.80;92.30
54202;DHT22;40108;53.152;5.844;2022-12-05T00:56:04;4.70;92.10
54202;DHT22;40108;53.152;5.844;2022-12-05T00:58:32;4.80;92.10
54202;DHT22;40108;53.152;5.844;2022-12-05T01:01:08;4.80;92.10
54202;DHT22;40108;53.152;5.844;2022-12-05T01:03:34;4.80;92.10
54202;DHT22;40108;53.152;5.844;2022-12-05T01:06:00;4.80;92.20
54202;DHT22;40108;53.152;5.844;2022-12-05T01:08:26;4.90;92.30
54202;DHT22;40108;53.152;5.844;2022-12-05T01:10:56;4.90;92.30
54202;DHT22;40108;53.152;5.844;2022-12-05T01:13:23;5.00;92.10
54202;DHT22;40108;53.152;5.844;2022-12-05T01:15:49;5.10;92.10
54202;DHT22;40108;53.152;5.844;2022-12-05T01:18:15;5.10;92.00
54202;DHT22;40108;53.152;5.844;2022-12-05T01:20:41;5.10;92.00
54202;DHT22;40108;53.152;5.844;2022-12-05T01:23:07;5.10;92.10
54202;DHT22;40108;53.152;5.844;2022-12-05T01:25:33;5.10;92.20
54202;DHT22;40108;53.152;5.844;2022-12-05T01:27:59;5.10;92.30
54202;DHT22;40108;53.152;5.844;2022-12-05T01:30:25;5.10;92.30
54202;DHT22;40108;53.152;5.844;2022-12-05T01:32:51;5.10;92.30
54202;DHT22;40108;53.152;5.844;2022-12-05T01:35:17;5.10;92.30
54202;DHT22;40108;53.152;5.844;2022-12-05T01:37:43;5.10;92.40
54202;DHT22;40108;53.152;5.844;2022-12-05T01:40:09;5.00;92.40
54202;DHT22;40108;53.152;5.844;2022-12-05T01:42:34;5.00;92.60
54202;DHT22;40108;53.152;5.844;2022-12-05T01:45:15;5.00;92.60
54202;DHT22;40108;53.152;5.844;2022-12-05T01:47:41;5.00;92.70
54202;DHT22;40108;53.152;5.844;2022-12-05T01:50:08;5.00;92.90
54202;DHT22;40108;53.152;5.844;2022-12-05T01:52:34;5.00;92.90
54202;DHT22;40108;53.152;5.844;2022-12-05T01:55:07;5.10;93.10
54202;DHT22;40108;53.152;5.844;2022-12-05T01:57:33;5.10;93.20
54202;DHT22;40108;53.152;5.844;2022-12-05T02:00:04;5.10;93.20
54202;DHT22;40108;53.152;5.844;2022-12-05T02:02:32;5.20;93.40
54202;DHT22;40108;53.152;5.844;2022-12-05T02:05:08;5.10;93.50
54202;DHT22;40108;53.152;5.844;2022-12-05T02:07:37;5.20;93.50
54202;DHT22;40108;53.152;5.844;2022-12-05T02:10:04;5.20;93.60
54202;DHT22;40108;53.152;5.844;2022-12-05T02:12:30;5.20;93.70
54202;DHT22;40108;53.152;5.844;2022-12-05T02:15:00;5.20;93.80
54202;DHT22;40108;53.152;5.844;2022-12-05T02:17:48;5.20;93.80
54202;DHT22;40108;53.152;5.844;2022-12-05T02:26:28;5.20;93.90
54202;DHT22;40108;53.152;5.844;2022-12-05T02:29:25;5.20;94.00
54202;DHT22;40108;53.152;5.844;2022-12-05T02:34:40;5.30;94.00
54202;DHT22;40108;53.152;5.844;2022-12-05T02:37:17;5.30;94.00
54202;DHT22;40108;53.152;5.844;2022-12-05T02:40:02;5.30;94.00
54202;DHT22;40108;53.152;5.844;2022-12-05T02:42:33;5.30;93.90
54202;DHT22;40108;53.152;5.844;2022-12-05T02:45:03;5.30;93.90
54202;DHT22;40108;53.152;5.844;2022-12-05T02:47:36;5.30;93.90
54202;DHT22;40108;53.152;5.844;2022-12-05T02:50:04;5.40;93.90
54202;DHT22;40108;53.152;5.844;2022-12-05T02:52:31;5.40;93.90
54202;DHT22;40108;53.152;5.844;2022-12-05T02:54:59;5.40;93.80
54202;DHT22;40108;53.152;5.844;2022-12-05T02:57:24;5.40;93.70
54202;DHT22;40108;53.152;5.844;2022-12-05T02:59:50;5.40;93.60
54202;DHT22;40108;53.152;5.844;2022-12-05T03:02:29;5.40;93.60
54202;DHT22;40108;53.152;5.844;2022-12-05T03:05:07;5.40;93.50
54202;DHT22;40108;53.152;5.844;2022-12-05T03:07:36;5.40;93.50
54202;DHT22;40108;53.152;5.844;2022-12-05T03:10:03;5.40;93.50
54202;DHT22;40108;53.152;5.844;2022-12-05T03:12:34;5.40;93.40
54202;DHT22;40108;53.152;5.844;2022-12-05T03:15:20;5.40;93.40
54202;DHT22;40108;53.152;5.844;2022-12-05T03:17:53;5.40;93.40
54202;DHT22;40108;53.152;5.844;2022-12-05T03:20:26;5.40;93.30
54202;DHT22;40108;53.152;5.844;2022-12-05T03:23:20;5.50;93.30
54202;DHT22;40108;53.152;5.844;2022-12-05T03:26:23;5.50;93.30
54202;DHT22;40108;53.152;5.844;2022-12-05T03:31:51;5.50;93.30
54202;DHT22;40108;53.152;5.844;2022-12-05T03:34:44;5.50;93.30
54202;DHT22;40108;53.152;5.844;2022-12-05T03:37:23;5.50;93.30
54202;DHT22;40108;53.152;5.844;2022-12-05T03:40:07;5.50;93.30
54202;DHT22;40108;53.152;5.844;2022-12-05T03:42:38;5.50;93.40
54202;DHT22;40108;53.152;5.844;2022-12-05T03:45:10;5.50;93.30
54202;DHT22;40108;53.152;5.844;2022-12-05T03:50:26;5.50;93.30
54202;DHT22;40108;53.152;5.844;2022-12-05T03:53:06;5.50;93.40
54202;DHT22;40108;53.152;5.844;2022-12-05T03:55:36;5.50;93.40
54202;DHT22;40108;53.152;5.844;2022-12-05T03:58:16;5.50;93.40
54202;DHT22;40108;53.152;5.844;2022-12-05T04:00:45;5.50;93.40
54202;DHT22;40108;53.152;5.844;2022-12-05T04:03:29;5.60;93.40
54202;DHT22;40108;53.152;5.844;2022-12-05T04:06:07;5.60;93.40
54202;DHT22;40108;53.152;5.844;2022-12-05T04:08:40;5.50;93.40
54202;DHT22;40108;53.152;5.844;2022-12-05T04:11:10;5.50;93.50
54202;DHT22;40108;53.152;5.844;2022-12-05T04:14:00;5.60;93.50
54202;DHT22;40108;53.152;5.844;2022-12-05T04:16:49;5.60;93.50
54202;DHT22;40108;53.152;5.844;2022-12-05T04:22:19;5.60;93.70
54202;DHT22;40108;53.152;5.844;2022-12-05T04:24:46;5.60;93.70
54202;DHT22;40108;53.152;5.844;2022-12-05T04:30:21;5.50;93.80
54202;DHT22;40108;53.152;5.844;2022-12-05T04:32:59;5.50;93.90
54202;DHT22;40108;53.152;5.844;2022-12-05T04:35:30;5.60;94.00
54202;DHT22;40108;53.152;5.844;2022-12-05T04:38:05;5.60;94.00
54202;DHT22;40108;53.152;5.844;2022-12-05T04:40:37;5.60;94.30
54202;DHT22;40108;53.152;5.844;2022-12-05T04:43:06;5.60;94.20
54202;DHT22;40108;53.152;5.844;2022-12-05T04:45:34;5.60;94.40
54202;DHT22;40108;53.152;5.844;2022-12-05T04:48:09;5.60;94.30
54202;DHT22;40108;53.152;5.844;2022-12-05T04:50:37;5.60;94.40
54202;DHT22;40108;53.152;5.844;2022-12-05T04:53:04;5.60;94.40
54202;DHT22;40108;53.152;5.844;2022-12-05T04:55:33;5.60;94.50
54202;DHT22;40108;53.152;5.844;2022-12-05T05:00:30;5.60;94.60
54202;DHT22;40108;53.152;5.844;2022-12-05T05:05:48;5.60;94.70
54202;DHT22;40108;53.152;5.844;2022-12-05T05:08:17;5.60;94.70
54202;DHT22;40108;53.152;5.844;2022-12-05T05:11:12;5.50;94.70
54202;DHT22;40108;53.152;5.844;2022-12-05T05:13:39;5.60;94.80
54202;DHT22;40108;53.152;5.844;2022-12-05T05:16:05;5.60;94.80
54202;DHT22;40108;53.152;5.844;2022-12-05T05:18:31;5.50;94.80
54202;DHT22;40108;53.152;5.844;2022-12-05T05:20:58;5.50;94.80
54202;DHT22;40108;53.152;5.844;2022-12-05T05:23:24;5.50;94.90
54202;DHT22;40108;53.152;5.844;2022-12-05T05:25:53;5.60;95.00
54202;DHT22;40108;53.152;5.844;2022-12-05T05:28:19;5.50;94.90
54202;DHT22;40108;53.152;5.844;2022-12-05T05:30:45;5.50;94.90
54202;DHT22;40108;53.152;5.844;2022-12-05T05:33:11;5.50;94.90
54202;DHT22;40108;53.152;5.844;2022-12-05T05:35:37;5.60;95.00
54202;DHT22;40108;53.152;5.844;2022-12-05T05:38:03;5.60;95.00
54202;DHT22;40108;53.152;5.844;2022-12-05T05:40:29;5.60;95.00
54202;DHT22;40108;53.152;5.844;2022-12-05T05:42:55;5.60;95.00
54202;DHT22;40108;53.152;5.844;2022-12-05T05:45:21;5.60;95.00
54202;DHT22;40108;53.152;5.844;2022-12-05T05:47:48;5.60;95.00
54202;DHT22;40108;53.152;5.844;2022-12-05T05:50:14;5.60;95.00
54202;DHT22;40108;53.152;5.844;2022-12-05T05:52:40;5.60;95.00
54202;DHT22;40108;53.152;5.844;2022-12-05T05:55:07;5.60;95.00
54202;DHT22;40108;53.152;5.844;2022-12-05T05:57:34;5.70;94.90
54202;DHT22;40108;53.152;5.844;2022-12-05T06:00:00;5.70;94.90
54202;DHT22;40108;53.152;5.844;2022-12-05T06:02:31;5.70;94.90
54202;DHT22;40108;53.152;5.844;2022-12-05T06:04:57;5.60;94.80
54202;DHT22;40108;53.152;5.844;2022-12-05T06:07:23;5.70;94.90
54202;DHT22;40108;53.152;5.844;2022-12-05T06:09:49;5.60;94.80
54202;DHT22;40108;53.152;5.844;2022-12-05T06:12:14;5.70;94.80
54202;DHT22;40108;53.152;5.844;2022-12-05T06:14:40;5.70;94.80
54202;DHT22;40108;53.152;5.844;2022-12-05T06:17:06;5.70;94.80
54202;DHT22;40108;53.152;5.844;2022-12-05T06:19:31;5.70;94.70
54202;DHT22;40108;53.152;5.844;2022-12-05T06:21:57;5.70;94.80
54202;DHT22;40108;53.152;5.844;2022-12-05T06:24:23;5.70;94.80
54202;DHT22;40108;53.152;5.844;2022-12-05T06:26:48;5.60;94.80
54202;DHT22;40108;53.152;5.844;2022-12-05T06:29:14;5.70;94.90
54202;DHT22;40108;53.152;5.844;2022-12-05T06:31:42;5.70;94.90
54202;DHT22;40108;53.152;5.844;2022-12-05T06:34:08;5.70;95.00
54202;DHT22;40108;53.152;5.844;2022-12-05T06:36:33;5.70;95.00
54202;DHT22;40108;53.152;5.844;2022-12-05T06:38:59;5.70;95.00
54202;DHT22;40108;53.152;5.844;2022-12-05T06:41:26;5.60;95.00
54202;DHT22;40108;53.152;5.844;2022-12-05T06:43:56;5.70;94.90
54202;DHT22;40108;53.152;5.844;2022-12-05T06:46:23;5.70;94.90
54202;DHT22;40108;53.152;5.844;2022-12-05T06:48:52;5.70;94.90
54202;DHT22;40108;53.152;5.844;2022-12-05T06:51:18;5.70;94.90
54202;DHT22;40108;53.152;5.844;2022-12-05T06:53:44;5.70;94.90
54202;DHT22;40108;53.152;5.844;2022-12-05T06:56:13;5.60;94.90
54202;DHT22;40108;53.152;5.844;2022-12-05T06:58:43;5.70;94.90
54202;DHT22;40108;53.152;5.844;2022-12-05T07:01:16;5.60;94.90
54202;DHT22;40108;53.152;5.844;2022-12-05T07:04:00;5.60;94.90
54202;DHT22;40108;53.152;5.844;2022-12-05T07:06:27;5.70;94.90
54202;DHT22;40108;53.152;5.844;2022-12-05T07:08:52;5.70;94.90
54202;DHT22;40108;53.152;5.844;2022-12-05T07:11:18;5.60;95.00
54202;DHT22;40108;53.152;5.844;2022-12-05T07:13:44;5.60;95.10
54202;DHT22;40108;53.152;5.844;2022-12-05T07:16:10;5.70;95.20
54202;DHT22;40108;53.152;5.844;2022-12-05T07:18:36;5.60;95.30
54202;DHT22;40108;53.152;5.844;2022-12-05T07:21:04;5.60;95.40
54202;DHT22;40108;53.152;5.844;2022-12-05T07:23:30;5.60;95.40
54202;DHT22;40108;53.152;5.844;2022-12-05T07:25:56;5.60;95.40
54202;DHT22;40108;53.152;5.844;2022-12-05T07:28:22;5.70;95.50
54202;DHT22;40108;53.152;5.844;2022-12-05T07:30:48;5.60;95.50
54202;DHT22;40108;53.152;5.844;2022-12-05T07:33:23;5.60;95.60
54202;DHT22;40108;53.152;5.844;2022-12-05T07:35:48;5.60;95.60
54202;DHT22;40108;53.152;5.844;2022-12-05T07:38:14;5.60;95.60
54202;DHT22;40108;53.152;5.844;2022-12-05T07:40:40;5.70;95.70
54202;DHT22;40108;53.152;5.844;2022-12-05T07:43:05;5.60;95.70
54202;DHT22;40108;53.152;5.844;2022-12-05T07:45:33;5.60;95.70
54202;DHT22;40108;53.152;5.844;2022-12-05T07:47:59;5.60;95.80
54202;DHT22;40108;53.152;5.844;2022-12-05T07:50:25;5.60;95.80
54202;DHT22;40108;53.152;5.844;2022-12-05T07:52:51;5.60;95.80
54202;DHT22;40108;53.152;5.844;2022-12-05T07:55:17;5.60;95.90
54202;DHT22;40108;53.152;5.844;2022-12-05T07:57:42;5.60;95.90
54202;DHT22;40108;53.152;5.844;2022-12-05T08:00:08;5.60;95.90
54202;DHT22;40108;53.152;5.844;2022-12-05T08:02:34;5.70;95.90
54202;DHT22;40108;53.152;5.844;2022-12-05T08:05:00;5.70;95.80
54202;DHT22;40108;53.152;5.844;2022-12-05T08:07:26;5.70;95.90
54202;DHT22;40108;53.152;5.844;2022-12-05T08:09:51;5.70;95.80
54202;DHT22;40108;53.152;5.844;2022-12-05T08:12:17;5.70;95.80
54202;DHT22;40108;53.152;5.844;2022-12-05T08:14:43;5.70;95.70
54202;DHT22;40108;53.152;5.844;2022-12-05T08:17:08;5.70;95.70
54202;DHT22;40108;53.152;5.844;2022-12-05T08:19:34;5.70;95.60
54202;DHT22;40108;53.152;5.844;2022-12-05T08:22:00;5.70;95.50
54202;DHT22;40108;53.152;5.844;2022-12-05T08:24:26;5.70;95.50
54202;DHT22;40108;53.152;5.844;2022-12-05T08:26:51;5.70;95.50
54202;DHT22;40108;53.152;5.844;2022-12-05T08:29:19;5.70;95.40
54202;DHT22;40108;53.152;5.844;2022-12-05T08:31:49;5.70;95.40
54202;DHT22;40108;53.152;5.844;2022-12-05T08:34:18;5.70;95.40
54202;DHT22;40108;53.152;5.844;2022-12-05T08:36:45;5.70;95.30
54202;DHT22;40108;53.152;5.844;2022-12-05T08:39:13;5.70;95.30
54202;DHT22;40108;53.152;5.844;2022-12-05T08:41:41;5.70;95.30
54202;DHT22;40108;53.152;5.844;2022-12-05T08:44:07;5.70;95.20
54202;DHT22;40108;53.152;5.844;2022-12-05T08:46:36;5.80;95.20
54202;DHT22;40108;53.152;5.844;2022-12-05T08:49:03;5.80;95.20
54202;DHT22;40108;53.152;5.844;2022-12-05T08:51:29;5.70;95.10
54202;DHT22;40108;53.152;5.844;2022-12-05T08:53:55;5.80;95.10
54202;DHT22;40108;53.152;5.844;2022-12-05T08:56:21;5.80;95.10
54202;DHT22;40108;53.152;5.844;2022-12-05T08:58:46;5.80;95.10
54202;DHT22;40108;53.152;5.844;2022-12-05T09:01:20;5.80;95.00
54202;DHT22;40108;53.152;5.844;2022-12-05T09:03:47;5.80;95.00
54202;DHT22;40108;53.152;5.844;2022-12-05T09:06:15;5.80;94.90
54202;DHT22;40108;53.152;5.844;2022-12-05T09:08:42;5.90;94.90
54202;DHT22;40108;53.152;5.844;2022-12-05T09:11:16;5.80;94.80
54202;DHT22;40108;53.152;5.844;2022-12-05T09:13:43;5.80;94.80
54202;DHT22;40108;53.152;5.844;2022-12-05T09:16:10;5.80;94.70
54202;DHT22;40108;53.152;5.844;2022-12-05T09:18:37;5.90;94.70
54202;DHT22;40108;53.152;5.844;2022-12-05T09:21:07;5.90;94.70
54202;DHT22;40108;53.152;5.844;2022-12-05T09:23:34;5.90;94.60
54202;DHT22;40108;53.152;5.844;2022-12-05T09:25:59;5.90;94.60
54202;DHT22;40108;53.152;5.844;2022-12-05T09:28:30;5.90;94.60
54202;DHT22;40108;53.152;5.844;2022-12-05T09:30:57;5.90;94.60
54202;DHT22;40108;53.152;5.844;2022-12-05T09:33:24;5.90;94.50
54202;DHT22;40108;53.152;5.844;2022-12-05T09:35:49;5.90;94.50
54202;DHT22;40108;53.152;5.844;2022-12-05T09:38:15;5.90;94.50
54202;DHT22;40108;53.152;5.844;2022-12-05T09:40:41;5.90;94.50
54202;DHT22;40108;53.152;5.844;2022-12-05T09:43:57;5.90;94.50
54202;DHT22;40108;53.152;5.844;2022-12-05T09:46:57;5.90;94.50
54202;DHT22;40108;53.152;5.844;2022-12-05T09:48:57;5.90;94.50
54202;DHT22;40108;53.152;5.844;2022-12-05T09:51:24;5.90;94.50
54202;DHT22;40108;53.152;5.844;2022-12-05T09:53:51;5.90;94.60
54202;DHT22;40108;53.152;5.844;2022-12-05T09:56:28;5.90;94.60
54202;DHT22;40108;53.152;5.844;2022-12-05T09:58:56;5.90;94.60
54202;DHT22;40108;53.152;5.844;2022-12-05T10:15:14;6.00;94.50
54202;DHT22;40108;53.152;5.844;2022-12-05T10:17:51;6.00;94.50
54202;DHT22;40108;53.152;5.844;2022-12-05T10:23:22;6.00;94.40
54202;DHT22;40108;53.152;5.844;2022-12-05T10:25:51;6.00;94.40
54202;DHT22;40108;53.152;5.844;2022-12-05T10:28:29;6.00;94.40
54202;DHT22;40108;53.152;5.844;2022-12-05T10:31:01;6.00;94.30
54202;DHT22;40108;53.152;5.844;2022-12-05T10:33:36;6.10;94.30
54202;DHT22;40108;53.152;5.844;2022-12-05T10:36:07;6.00;94.40
54202;DHT22;40108;53.152;5.844;2022-12-05T10:38:34;6.10;94.40
54202;DHT22;40108;53.152;5.844;2022-12-05T10:41:05;6.00;94.30
54202;DHT22;40108;53.152;5.844;2022-12-05T10:43:33;6.00;94.30
54202;DHT22;40108;53.152;5.844;2022-12-05T10:46:02;6.10;94.40
54202;DHT22;40108;53.152;5.844;2022-12-05T10:48:29;6.10;94.40
54202;DHT22;40108;53.152;5.844;2022-12-05T10:50:57;6.10;94.40
54202;DHT22;40108;53.152;5.844;2022-12-05T10:53:39;6.10;94.40
54202;DHT22;40108;53.152;5.844;2022-12-05T10:56:40;6.10;94.40
54202;DHT22;40108;53.152;5.844;2022-12-05T10:59:08;6.10;94.30
54202;DHT22;40108;53.152;5.844;2022-12-05T11:01:35;6.10;94.30
54202;DHT22;40108;53.152;5.844;2022-12-05T11:04:12;6.10;94.30
54202;DHT22;40108;53.152;5.844;2022-12-05T11:06:58;6.10;94.30
54202;DHT22;40108;53.152;5.844;2022-12-05T11:09:36;6.10;94.30
54202;DHT22;40108;53.152;5.844;2022-12-05T11:12:23;6.20;94.30
54202;DHT22;40108;53.152;5.844;2022-12-05T11:17:33;6.20;94.30
54202;DHT22;40108;53.152;5.844;2022-12-05T11:19:59;6.10;94.20
54202;DHT22;40108;53.152;5.844;2022-12-05T11:22:34;6.10;94.30
54202;DHT22;40108;53.152;5.844;2022-12-05T11:25:01;6.10;94.30
54202;DHT22;40108;53.152;5.844;2022-12-05T11:27:46;6.10;94.30
54202;DHT22;40108;53.152;5.844;2022-12-05T11:30:19;6.10;94.50
54202;DHT22;40108;53.152;5.844;2022-12-05T11:32:45;6.10;94.60
54202;DHT22;40108;53.152;5.844;2022-12-05T11:40:29;6.00;94.80
54202;DHT22;40108;53.152;5.844;2022-12-05T11:48:41;6.10;95.20
54202;DHT22;40108;53.152;5.844;2022-12-05T11:57:02;6.00;95.30
54202;DHT22;40108;53.152;5.844;2022-12-05T12:02:26;6.00;95.40
54202;DHT22;40108;53.152;5.844;2022-12-05T12:05:05;5.90;95.50
54202;DHT22;40108;53.152;5.844;2022-12-05T12:18:59;5.90;95.70
54202;DHT22;40108;53.152;5.844;2022-12-05T12:22:03;5.90;95.80
54202;DHT22;40108;53.152;5.844;2022-12-05T12:35:58;5.90;96.10
54202;DHT22;40108;53.152;5.844;2022-12-05T12:40:59;5.90;96.10
54202;DHT22;40108;53.152;5.844;2022-12-05T12:43:48;5.80;96.10
54202;DHT22;40108;53.152;5.844;2022-12-05T12:46:32;5.80;96.20
54202;DHT22;40108;53.152;5.844;2022-12-05T12:49:07;5.80;96.20
54202;DHT22;40108;53.152;5.844;2022-12-05T12:51:42;5.80;96.20
54202;DHT22;40108;53.152;5.844;2022-12-05T13:03:14;5.80;96.40
54202;DHT22;40108;53.152;5.844;2022-12-05T13:06:02;5.80;96.50
54202;DHT22;40108;53.152;5.844;2022-12-05T13:08:38;5.80;96.50
54202;DHT22;40108;53.152;5.844;2022-12-05T13:11:08;5.80;96.70
54202;DHT22;40108;53.152;5.844;2022-12-05T13:13:39;5.80;96.60
54202;DHT22;40108;53.152;5.844;2022-12-05T13:16:08;5.80;96.70
54202;DHT22;40108;53.152;5.844;2022-12-05T13:18:35;5.80;96.70
54202;DHT22;40108;53.152;5.844;2022-12-05T13:21:05;5.80;96.70
54202;DHT22;40108;53.152;5.844;2022-12-05T13:23:35;5.70;96.80
54202;DHT22;40108;53.152;5.844;2022-12-05T13:26:10;5.80;96.70
54202;DHT22;40108;53.152;5.844;2022-12-05T13:28:38;5.80;96.80
54202;DHT22;40108;53.152;5.844;2022-12-05T13:31:09;5.70;96.80
54202;DHT22;40108;53.152;5.844;2022-12-05T13:33:49;5.70;96.80
54202;DHT22;40108;53.152;5.844;2022-12-05T13:36:20;5.70;96.80
54202;DHT22;40108;53.152;5.844;2022-12-05T13:41:58;5.70;96.90
54202;DHT22;40108;53.152;5.844;2022-12-05T13:47:32;5.70;96.90
54202;DHT22;40108;53.152;5.844;2022-12-05T13:52:38;5.70;96.90
54202;DHT22;40108;53.152;5.844;2022-12-05T13:55:38;5.70;96.90
54202;DHT22;40108;53.152;5.844;2022-12-05T14:00:49;5.70;97.00
54202;DHT22;40108;53.152;5.844;2022-12-05T14:05:45;5.70;97.00
54202;DHT22;40108;53.152;5.844;2022-12-05T14:15:47;5.70;97.10
54202;DHT22;40108;53.152;5.844;2022-12-05T14:18:24;5.70;97.10
54202;DHT22;40108;53.152;5.844;2022-12-05T14:21:13;5.70;97.10
54202;DHT22;40108;53.152;5.844;2022-12-05T14:32:27;5.70;97.30
54202;DHT22;40108;53.152;5.844;2022-12-05T14:39:56;5.70;97.30
54202;DHT22;40108;53.152;5.844;2022-12-05T14:42:40;5.70;97.30
54202;DHT22;40108;53.152;5.844;2022-12-05T14:48:00;5.70;97.30
54202;DHT22;40108;53.152;5.844;2022-12-05T14:56:02;5.70;97.30
54202;DHT22;40108;53.152;5.844;2022-12-05T14:59:00;5.70;97.40
54202;DHT22;40108;53.152;5.844;2022-12-05T15:04:08;5.70;97.40
54202;DHT22;40108;53.152;5.844;2022-12-05T15:06:41;5.70;97.40
54202;DHT22;40108;53.152;5.844;2022-12-05T15:11:55;5.70;97.40
54202;DHT22;40108;53.152;5.844;2022-12-05T15:14:24;5.70;97.40
54202;DHT22;40108;53.152;5.844;2022-12-05T15:16:54;5.70;97.40
54202;DHT22;40108;53.152;5.844;2022-12-05T15:19:32;5.70;97.40
54202;DHT22;40108;53.152;5.844;2022-12-05T15:22:05;5.70;97.40
54202;DHT22;40108;53.152;5.844;2022-12-05T15:24:36;5.70;97.40
54202;DHT22;40108;53.152;5.844;2022-12-05T15:27:03;5.60;97.40
54202;DHT22;40108;53.152;5.844;2022-12-05T15:29:30;5.70;97.40
54202;DHT22;40108;53.152;5.844;2022-12-05T15:32:15;5.60;97.40
54202;DHT22;40108;53.152;5.844;2022-12-05T15:34:59;5.60;97.40
54202;DHT22;40108;53.152;5.844;2022-12-05T15:40:13;5.60;97.50
54202;DHT22;40108;53.152;5.844;2022-12-05T15:42:46;5.60;97.50
54202;DHT22;40108;53.152;5.844;2022-12-05T15:47:41;5.60;97.50
54202;DHT22;40108;53.152;5.844;2022-12-05T15:50:15;5.70;97.50
54202;DHT22;40108;53.152;5.844;2022-12-05T15:52:46;5.70;97.50
54202;DHT22;40108;53.152;5.844;2022-12-05T15:55:22;5.70;97.50
54202;DHT22;40108;53.152;5.844;2022-12-05T15:58:03;5.70;97.50
54202;DHT22;40108;53.152;5.844;2022-12-05T16:00:33;5.60;97.50
54202;DHT22;40108;53.152;5.844;2022-12-05T16:03:07;5.60;97.50
54202;DHT22;40108;53.152;5.844;2022-12-05T16:05:51;5.70;97.50
54202;DHT22;40108;53.152;5.844;2022-12-05T16:08:17;5.60;97.50
54202;DHT22;40108;53.152;5.844;2022-12-05T16:10:43;5.60;97.50
54202;DHT22;40108;53.152;5.844;2022-12-05T16:13:14;5.70;97.60
54202;DHT22;40108;53.152;5.844;2022-12-05T16:15:43;5.70;97.60
54202;DHT22;40108;53.152;5.844;2022-12-05T16:18:26;5.70;97.60
54202;DHT22;40108;53.152;5.844;2022-12-05T16:20:53;5.70;97.60
54202;DHT22;40108;53.152;5.844;2022-12-05T16:23:28;5.60;97.60
54202;DHT22;40108;53.152;5.844;2022-12-05T16:26:17;5.70;97.60
54202;DHT22;40108;53.152;5.844;2022-12-05T16:28:56;5.60;97.60
54202;DHT22;40108;53.152;5.844;2022-12-05T16:31:22;5.70;97.60
54202;DHT22;40108;53.152;5.844;2022-12-05T16:34:11;5.70;97.50
54202;DHT22;40108;53.152;5.844;2022-12-05T16:36:45;5.60;97.50
54202;DHT22;40108;53.152;5.844;2022-12-05T16:39:11;5.60;97.60
54202;DHT22;40108;53.152;5.844;2022-12-05T16:41:38;5.60;97.50
54202;DHT22;40108;53.152;5.844;2022-12-05T16:44:11;5.60;97.50
54202;DHT22;40108;53.152;5.844;2022-12-05T16:46:51;5.70;97.60
54202;DHT22;40108;53.152;5.844;2022-12-05T16:54:27;5.60;97.50
54202;DHT22;40108;53.152;5.844;2022-12-05T16:56:53;5.70;97.50
54202;DHT22;40108;53.152;5.844;2022-12-05T16:59:37;5.70;97.50
54202;DHT22;40108;53.152;5.844;2022-12-05T17:02:09;5.70;97.50
54202;DHT22;40108;53.152;5.844;2022-12-05T17:04:36;5.60;97.50
54202;DHT22;40108;53.152;5.844;2022-12-05T17:07:02;5.70;97.50
54202;DHT22;40108;53.152;5.844;2022-12-05T17:09:27;5.60;97.50
54202;DHT22;40108;53.152;5.844;2022-12-05T17:12:02;5.70;97.50
54202;DHT22;40108;53.152;5.844;2022-12-05T17:14:29;5.60;97.50
54202;DHT22;40108;53.152;5.844;2022-12-05T17:16:55;5.60;97.50
54202;DHT22;40108;53.152;5.844;2022-12-05T17:19:20;5.60;97.50
54202;DHT22;40108;53.152;5.844;2022-12-05T17:21:46;5.60;97.50
54202;DHT22;40108;53.152;5.844;2022-12-05T17:24:15;5.60;97.50
54202;DHT22;40108;53.152;5.844;2022-12-05T17:26:42;5.60;97.50
54202;DHT22;40108;53.152;5.844;2022-12-05T17:29:08;5.60;97.50
54202;DHT22;40108;53.152;5.844;2022-12-05T17:31:34;5.60;97.50
54202;DHT22;40108;53.152;5.844;2022-12-05T17:34:01;5.60;97.50
54202;DHT22;40108;53.152;5.844;2022-12-05T17:36:26;5.60;97.50
54202;DHT22;40108;53.152;5.844;2022-12-05T17:38:52;5.60;97.50
54202;DHT22;40108;53.152;5.844;2022-12-05T17:41:22;5.60;97.50
54202;DHT22;40108;53.152;5.844;2022-12-05T17:43:48;5.60;97.60
54202;DHT22;40108;53.152;5.844;2022-12-05T17:46:18;5.60;97.50
54202;DHT22;40108;53.152;5.844;2022-12-05T17:48:44;5.60;97.50
54202;DHT22;40108;53.152;5.844;2022-12-05T17:51:10;5.60;97.60
54202;DHT22;40108;53.152;5.844;2022-12-05T17:53:37;5.60;97.50
54202;DHT22;40108;53.152;5.844;2022-12-05T17:56:04;5.60;97.60
54202;DHT22;40108;53.152;5.844;2022-12-05T17:58:30;5.60;97.60
54202;DHT22;40108;53.152;5.844;2022-12-05T18:00:55;5.70;97.60
54202;DHT22;40108;53.152;5.844;2022-12-05T18:03:21;5.60;97.60
54202;DHT22;40108;53.152;5.844;2022-12-05T18:05:47;5.70;97.60
54202;DHT22;40108;53.152;5.844;2022-12-05T18:08:13;5.60;97.60
54202;DHT22;40108;53.152;5.844;2022-12-05T18:10:42;5.70;97.60
54202;DHT22;40108;53.152;5.844;2022-12-05T18:13:08;5.60;97.60
54202;DHT22;40108;53.152;5.844;2022-12-05T18:15:34;5.60;97.50
54202;DHT22;40108;53.152;5.844;2022-12-05T18:18:00;5.60;97.50
54202;DHT22;40108;53.152;5.844;2022-12-05T18:20:28;5.60;97.50
54202;DHT22;40108;53.152;5.844;2022-12-05T18:22:54;5.70;97.50
54202;DHT22;40108;53.152;5.844;2022-12-05T18:25:20;5.60;97.50
54202;DHT22;40108;53.152;5.844;2022-12-05T18:27:45;5.60;97.50
54202;DHT22;40108;53.152;5.844;2022-12-05T18:30:13;5.60;97.50
54202;DHT22;40108;53.152;5.844;2022-12-05T18:32:39;5.60;97.50
54202;DHT22;40108;53.152;5.844;2022-12-05T18:35:05;5.60;97.50
54202;DHT22;40108;53.152;5.844;2022-12-05T18:37:38;5.60;97.40
54202;DHT22;40108;53.152;5.844;2022-12-05T18:40:05;5.60;97.40
54202;DHT22;40108;53.152;5.844;2022-12-05T18:42:32;5.60;97.40
54202;DHT22;40108;53.152;5.844;2022-12-05T18:44:58;5.60;97.40